createdAt,value
2019-01-11T00:03:44.600Z,100304.39
2019-01-11T00:07:48.774Z,100306.48
2019-01-11T00:11:53.002Z,100304.23
2019-01-11T00:15:57.164Z,100308.20
2019-01-11T00:20:03.771Z,100313.62
2019-01-11T00:24:07.624Z,100319.27
2019-01-11T00:28:11.758Z,100319.69
2019-01-11T00:32:15.934Z,100328.77
2019-01-11T00:36:20.062Z,100324.00
2019-01-11T00:40:24.230Z,100326.09
2019-01-11T00:44:28.412Z,100325.93
2019-01-11T00:48:32.583Z,100329.35
2019-01-11T00:52:36.810Z,100332.25
2019-01-11T00:56:40.950Z,100332.20
2019-01-11T01:00:45.488Z,100331.63
2019-01-11T01:04:49.615Z,100339.65
2019-01-11T01:08:53.793Z,100334.14
2019-01-11T01:12:58.004Z,100339.27
2019-01-11T01:17:02.176Z,100346.97
2019-01-11T01:21:06.319Z,100349.31
2019-01-11T01:25:11.807Z,100359.51
2019-01-11T01:29:16.204Z,100369.88
2019-01-11T01:33:20.383Z,100369.79
2019-01-11T01:37:24.548Z,100381.20
2019-01-11T01:41:28.722Z,100379.02
2019-01-11T01:45:32.864Z,100384.04
2019-01-11T01:49:37.035Z,100383.83
2019-01-11T01:53:41.215Z,100395.56
2019-01-11T01:57:45.385Z,100391.27
2019-01-11T02:01:49.562Z,100401.05
2019-01-11T02:05:53.714Z,100400.25
2019-01-11T02:09:57.955Z,100399.37
2019-01-11T02:14:02.083Z,100390.13
2019-01-11T02:18:06.373Z,100400.95
2019-01-11T02:22:10.612Z,100399.53
2019-01-11T02:26:14.751Z,100395.31
2019-01-11T02:30:23.386Z,100408.09
2019-01-11T02:34:27.566Z,100403.41
2019-01-11T02:38:32.327Z,100401.20
2019-01-11T02:42:36.588Z,100404.71
2019-01-11T02:46:40.773Z,100395.47
2019-01-11T02:50:44.894Z,100394.97
2019-01-11T02:54:49.112Z,100394.01
2019-01-11T02:58:53.291Z,100397.42
2019-01-11T03:02:57.452Z,100393.55
2019-01-11T03:07:01.671Z,100396.42
2019-01-11T03:11:05.764Z,100393.37
2019-01-11T03:15:10.522Z,100390.37
2019-01-11T03:19:14.697Z,100387.06
2019-01-11T03:23:18.883Z,100384.48
2019-01-11T03:27:23.044Z,100386.06
2019-01-11T03:31:34.042Z,100389.41
2019-01-11T03:35:38.235Z,100384.14
2019-01-11T03:39:42.418Z,100389.48
2019-01-11T03:43:46.589Z,100391.66
2019-01-11T03:47:50.818Z,100395.55
2019-01-11T03:51:54.947Z,100398.38
2019-01-11T03:55:59.153Z,100395.79
2019-01-11T04:00:03.359Z,100405.36
2019-01-11T04:04:07.483Z,100406.65
2019-01-11T04:08:11.658Z,100400.97
2019-01-11T04:12:15.851Z,100400.42
2019-01-11T04:16:20.067Z,100402.59
2019-01-11T04:20:24.294Z,100411.16
2019-01-11T04:24:30.117Z,100398.54
2019-01-11T04:28:34.506Z,100394.39
2019-01-11T04:32:38.679Z,100392.22
2019-01-11T04:36:42.857Z,100404.03
2019-01-11T04:40:47.041Z,100408.80
2019-01-11T04:44:51.218Z,100417.36
2019-01-11T04:48:55.328Z,100407.25
2019-01-11T04:52:59.494Z,100415.67
2019-01-11T04:57:03.719Z,100411.94
2019-01-11T05:01:07.870Z,100417.44
2019-01-11T05:05:12.661Z,100420.31
2019-01-11T05:09:16.839Z,100424.05
2019-01-11T05:13:39.963Z,100425.55
2019-01-11T05:17:44.144Z,100424.20
2019-01-11T05:21:48.305Z,100433.16
2019-01-11T05:25:52.746Z,100429.66
2019-01-11T05:29:56.889Z,100434.45
2019-01-11T05:34:01.059Z,100441.02
2019-01-11T05:38:05.241Z,100437.28
2019-01-11T05:42:09.390Z,100448.14
2019-01-11T05:46:13.562Z,100445.05
2019-01-11T05:50:24.037Z,100449.75
2019-01-11T05:54:25.488Z,100454.52
2019-01-11T05:58:30.984Z,100456.55
2019-01-11T06:02:35.353Z,100455.25
2019-01-11T06:06:57.120Z,100449.08
2019-01-11T06:11:01.568Z,100459.14
2019-01-11T06:15:06.671Z,100457.34
2019-01-11T06:19:10.841Z,100454.19
2019-01-11T06:23:15.005Z,100449.22
2019-01-11T06:27:19.244Z,100450.92
2019-01-11T06:31:23.517Z,100458.59
2019-01-11T06:35:27.784Z,100464.97
2019-01-11T06:39:32.101Z,100466.36
2019-01-11T06:43:36.477Z,100462.98
2019-01-11T06:47:40.922Z,100468.95
2019-01-11T06:51:45.174Z,100473.14
2019-01-11T06:55:49.323Z,100476.47
2019-01-11T06:59:53.502Z,100480.73
2019-01-11T07:03:57.677Z,100485.11
2019-01-11T07:08:01.861Z,100488.11
2019-01-11T07:12:06.165Z,100485.43
2019-01-11T07:16:10.431Z,100488.48
2019-01-11T07:20:14.602Z,100494.63
2019-01-11T07:24:18.793Z,100501.52
2019-01-11T07:28:22.984Z,100504.70
2019-01-11T07:32:27.217Z,100504.20
2019-01-11T07:36:34.954Z,100513.84
2019-01-11T07:40:39.144Z,100518.42
2019-01-11T07:44:43.416Z,100512.37
2019-01-11T07:48:47.664Z,100515.84
2019-01-11T07:52:51.889Z,100507.94
2019-01-11T07:56:58.065Z,100515.06
2019-01-11T08:01:02.356Z,100516.49
2019-01-11T08:05:07.183Z,100516.49
2019-01-11T08:09:11.390Z,100516.68
2019-01-11T08:13:16.010Z,100520.38
2019-01-11T08:17:20.253Z,100526.78
2019-01-11T08:21:24.398Z,100526.78
2019-01-11T08:25:28.571Z,100518.20
2019-01-11T08:29:33.233Z,100522.81
2019-01-11T08:33:37.502Z,100531.64
2019-01-11T08:37:41.684Z,100528.64
2019-01-11T08:41:45.813Z,100531.55
2019-01-11T08:45:50.008Z,100533.03
2019-01-11T08:49:54.211Z,100525.27
2019-01-11T08:53:58.416Z,100535.63
2019-01-11T08:58:02.568Z,100540.06
2019-01-11T09:02:06.751Z,100547.62
2019-01-11T09:06:11.357Z,100544.59
2019-01-11T09:10:22.480Z,100551.67
2019-01-11T09:14:39.447Z,100548.20
2019-01-11T09:18:53.483Z,100549.22
2019-01-11T09:22:57.657Z,100551.57
2019-01-11T09:27:01.825Z,100557.08
2019-01-11T09:31:06.004Z,100555.47
2019-01-11T09:35:10.128Z,100557.59
2019-01-11T09:39:14.299Z,100551.11
2019-01-11T09:43:18.425Z,100548.02
2019-01-11T09:47:22.598Z,100542.05
2019-01-11T09:51:26.770Z,100543.58
2019-01-11T09:55:30.959Z,100549.13
2019-01-11T09:59:35.381Z,100548.63
2019-01-11T10:03:39.548Z,100553.56
2019-01-11T10:07:43.711Z,100542.88
2019-01-11T10:11:47.888Z,100537.70
2019-01-11T10:15:52.078Z,100543.06
2019-01-11T10:19:56.434Z,100538.11
2019-01-11T10:24:00.568Z,100547.77
2019-01-11T10:28:04.747Z,100535.47
2019-01-11T10:32:09.058Z,100519.70
2019-01-11T10:36:13.327Z,100527.17
2019-01-11T10:40:18.223Z,100537.33
2019-01-11T10:44:22.384Z,100528.58
2019-01-11T10:48:26.571Z,100516.42
2019-01-11T10:52:30.695Z,100519.20
2019-01-11T10:56:34.885Z,100511.76
2019-01-11T11:00:39.060Z,100509.39
2019-01-11T11:04:43.300Z,100497.11
2019-01-11T11:08:47.472Z,100498.65
2019-01-11T11:12:51.772Z,100486.07
2019-01-11T11:16:56.129Z,100491.84
2019-01-11T11:21:00.462Z,100488.58
2019-01-11T11:25:06.375Z,100478.30
2019-01-11T11:29:10.646Z,100474.17
2019-01-11T11:33:14.977Z,100471.59
2019-01-11T11:37:19.467Z,100459.26
2019-01-11T11:41:23.780Z,100464.20
2019-01-11T11:45:28.573Z,100457.72
2019-01-11T11:49:32.862Z,100461.47
2019-01-11T11:53:37.946Z,100457.33
2019-01-11T11:57:42.386Z,100448.25
2019-01-11T12:01:46.883Z,100450.68
2019-01-11T12:05:51.160Z,100440.81
2019-01-11T12:09:57.328Z,100427.36
2019-01-11T12:14:01.753Z,100421.05
2019-01-11T12:18:06.067Z,100412.93
2019-01-11T12:22:10.559Z,100414.06
2019-01-11T12:26:14.915Z,100410.96
2019-01-11T12:30:19.628Z,100406.73
2019-01-11T12:34:24.031Z,100398.33
2019-01-11T12:38:28.334Z,100394.39
2019-01-11T12:42:32.945Z,100390.84
2019-01-11T12:46:37.640Z,100396.41
2019-01-11T12:50:42.029Z,100382.70
2019-01-11T12:54:46.388Z,100386.77
2019-01-11T12:58:50.681Z,100380.70
2019-01-11T13:02:55.239Z,100387.17
2019-01-11T13:06:59.656Z,100385.09
2019-01-11T13:11:03.936Z,100381.91
2019-01-11T13:15:10.702Z,100372.42
2019-01-11T13:19:15.070Z,100380.28
2019-01-11T13:23:19.410Z,100377.36
2019-01-11T13:27:23.769Z,100380.70
2019-01-11T13:31:28.088Z,100382.96
2019-01-11T13:35:32.323Z,100381.66
2019-01-11T13:39:37.993Z,100376.35
2019-01-11T13:43:43.160Z,100377.89
2019-01-11T13:47:47.520Z,100374.01
2019-01-11T13:51:51.864Z,100372.63
2019-01-11T13:55:56.178Z,100374.97
2019-01-11T14:00:00.543Z,100365.41
2019-01-11T14:04:04.890Z,100372.96
2019-01-11T14:08:09.190Z,100360.80
2019-01-11T14:12:13.647Z,100371.30
2019-01-11T14:16:18.090Z,100371.08
2019-01-11T14:20:22.455Z,100367.91
2019-01-11T14:24:29.334Z,100367.78
2019-01-11T14:28:35.191Z,100358.30
2019-01-11T14:32:39.544Z,100364.28
2019-01-11T14:36:46.433Z,100368.83
2019-01-11T14:40:54.378Z,100364.39
2019-01-11T14:44:58.770Z,100363.59
2019-01-11T14:49:03.267Z,100359.04
2019-01-11T14:53:08.347Z,100356.52
2019-01-11T14:57:12.695Z,100356.52
2019-01-11T15:01:17.080Z,100356.39
2019-01-11T15:05:23.606Z,100340.77
2019-01-11T15:09:27.937Z,100342.36
2019-01-11T15:13:32.301Z,100338.97
2019-01-11T15:17:38.638Z,100350.13
2019-01-11T15:21:43.047Z,100342.85
2019-01-11T15:25:48.146Z,100333.95
2019-01-11T15:29:52.838Z,100339.87
2019-01-11T15:33:57.225Z,100338.41
2019-01-11T15:38:01.535Z,100326.11
2019-01-11T15:42:05.882Z,100333.30
2019-01-11T15:46:15.075Z,100325.31
2019-01-11T15:50:36.903Z,100316.08
2019-01-11T15:54:41.386Z,100315.49
2019-01-11T15:58:45.877Z,100307.34
2019-01-11T16:02:50.222Z,100299.67
2019-01-11T16:06:54.663Z,100298.12
2019-01-11T16:11:30.369Z,100287.27
2019-01-11T16:16:16.921Z,100285.75
2019-01-11T16:20:21.309Z,100283.95
2019-01-11T16:24:26.365Z,100275.86
2019-01-11T16:28:31.636Z,100270.22
2019-01-11T16:32:46.099Z,100268.92
2019-01-11T16:37:03.368Z,100265.34
2019-01-11T16:41:07.668Z,100260.75
2019-01-11T16:45:13.136Z,100250.95
2019-01-11T16:49:25.409Z,100253.07
2019-01-11T16:53:29.806Z,100244.73
2019-01-11T16:57:34.504Z,100245.61
2019-01-11T17:01:39.375Z,100241.73
2019-01-11T17:05:43.852Z,100246.74
2019-01-11T17:09:48.175Z,100235.67
2019-01-11T17:13:52.730Z,100228.95
2019-01-11T17:17:57.027Z,100220.86
2019-01-11T17:22:01.428Z,100226.66
2019-01-11T17:26:05.707Z,100205.16
2019-01-11T17:30:16.509Z,100211.80
2019-01-11T17:34:21.990Z,100206.78
2019-01-11T17:38:26.321Z,100211.75
2019-01-11T17:42:30.545Z,100199.88
2019-01-11T17:46:34.834Z,100194.91
2019-01-11T17:50:39.632Z,100179.87
2019-01-11T17:54:44.053Z,100181.78
2019-01-11T17:58:48.540Z,100171.51
2019-01-11T18:02:53.092Z,100171.75
2019-01-11T18:06:57.353Z,100156.98
2019-01-11T18:11:01.657Z,100159.91
2019-01-11T18:15:11.202Z,100157.44
2019-01-11T18:19:15.608Z,100152.91
2019-01-11T18:23:20.262Z,100158.09
2019-01-11T18:27:24.604Z,100152.99
2019-01-11T18:31:29.001Z,100150.40
2019-01-11T18:35:33.691Z,100160.84
2019-01-11T18:39:37.998Z,100154.75
2019-01-11T18:43:42.319Z,100161.11
2019-01-11T18:47:46.748Z,100157.86
2019-01-11T18:51:51.027Z,100155.53
2019-01-11T18:55:55.363Z,100162.42
2019-01-11T18:59:59.612Z,100147.22
2019-01-11T19:04:04.096Z,100151.30
2019-01-11T19:08:08.473Z,100152.68
2019-01-11T19:12:12.733Z,100142.05
2019-01-11T19:16:17.061Z,100147.39
2019-01-11T19:20:23.888Z,100141.87
2019-01-11T19:24:28.182Z,100145.42
2019-01-11T19:28:32.506Z,100144.46
2019-01-11T19:32:36.877Z,100126.90
2019-01-11T19:36:41.228Z,100130.98
2019-01-11T19:40:45.798Z,100120.88
2019-01-11T19:44:50.443Z,100117.91
2019-01-11T19:48:54.752Z,100116.12
2019-01-11T19:52:59.060Z,100118.48
2019-01-11T19:57:03.788Z,100104.64
2019-01-11T20:01:08.311Z,100102.47
2019-01-11T20:05:13.389Z,100104.83
2019-01-11T20:09:17.704Z,100092.14
2019-01-11T20:13:22.017Z,100093.70
2019-01-11T20:17:26.273Z,100094.92
2019-01-11T20:21:30.681Z,100098.19
2019-01-11T20:25:34.995Z,100079.03
2019-01-11T20:29:39.339Z,100086.56
2019-01-11T20:33:43.733Z,100075.33
2019-01-11T20:37:48.095Z,100067.06
2019-01-11T20:41:52.391Z,100078.88
2019-01-11T20:46:02.957Z,100070.27
2019-01-11T20:50:03.227Z,100068.97
2019-01-11T20:54:07.664Z,100064.83
2019-01-11T20:58:12.412Z,100059.27
2019-01-11T21:02:17.054Z,100055.64
2019-01-11T21:06:21.615Z,100050.92
2019-01-11T21:10:26.627Z,100051.08
2019-01-11T21:14:31.355Z,100046.85
2019-01-11T21:18:36.225Z,100043.87
2019-01-11T21:22:40.811Z,100030.09
2019-01-11T21:26:45.136Z,100021.98
2019-01-11T21:30:49.365Z,100020.76
2019-01-11T21:34:55.330Z,100001.26
2019-01-11T21:38:59.573Z,100008.30
2019-01-11T21:43:04.375Z,100003.58
2019-01-11T21:47:09.273Z,99994.93
2019-01-11T21:51:13.563Z,99986.81
2019-01-11T21:55:17.974Z,99982.59
2019-01-11T21:59:22.306Z,99987.04
2019-01-11T22:03:26.557Z,99980.49
2019-01-11T22:07:30.826Z,99988.19
2019-01-11T22:11:35.490Z,99982.12
2019-01-11T22:15:40.537Z,99977.14
2019-01-11T22:19:44.763Z,99988.31
2019-01-11T22:23:49.036Z,99968.42
2019-01-11T22:27:53.287Z,99961.11
2019-01-11T22:31:57.564Z,99950.30
2019-01-11T22:36:01.825Z,99953.69
2019-01-11T22:40:08.907Z,99963.09
2019-01-11T22:44:13.199Z,99953.34
2019-01-11T22:48:17.466Z,99960.45
2019-01-11T22:52:21.776Z,99956.22
2019-01-11T22:56:26.442Z,99947.62
2019-01-11T23:01:08.967Z,99960.53
2019-01-11T23:05:14.618Z,99952.41
2019-01-11T23:09:21.071Z,99938.44
2019-01-11T23:13:25.425Z,99948.53
2019-01-11T23:17:59.349Z,99933.37
2019-01-11T23:22:03.634Z,99940.69
2019-01-11T23:26:07.966Z,99937.33
2019-01-11T23:30:15.302Z,99937.05
2019-01-11T23:34:19.588Z,99944.62
2019-01-11T23:38:23.884Z,99944.31
2019-01-11T23:42:28.139Z,99941.98
2019-01-11T23:46:32.438Z,99946.08
2019-01-11T23:50:36.967Z,99940.97
2019-01-11T23:54:41.269Z,99946.95
2019-01-11T23:58:45.505Z,99946.53
